Time;durP1;ratioP1;P1;durP2;ratioP2;P2;SDS_P1;SDS_P2;PMS_P1;PMS_P2;Temp;Humidity;BMP_temperature;BMP_pressure;BME280_temperature;BME280_humidity;BME280_pressure;Samples;Min_cycle;Max_cycle;Signal;HPM_P1;HPM_P2
2021/04/12 00:00:09;;;;;;;0.83;0.83;;;10.10;99.90;;;;;;5055286;28;20465;-77
2021/04/12 00:02:44;;;;;;;0.83;0.83;;;10.00;99.90;;;;;;5040599;28;20497;-76
2021/04/12 00:05:29;;;;;;;1.13;1.10;;;10.00;99.90;;;;;;5040660;28;20470;-77
2021/04/12 00:08:04;;;;;;;1.00;1.00;;;10.00;99.90;;;;;;5052431;28;20464;-77
2021/04/12 00:10:37;;;;;;;0.90;0.90;;;9.90;99.90;;;;;;5060077;28;20477;-78
2021/04/12 00:13:11;;;;;;;1.00;1.00;;;9.90;99.90;;;;;;5045842;28;20480;-78
2021/04/12 00:15:46;;;;;;;1.00;1.00;;;9.80;99.90;;;;;;5040473;28;21147;-77
2021/04/12 00:18:21;;;;;;;1.27;1.27;;;9.80;99.90;;;;;;5057172;28;21297;-77
2021/04/12 00:20:53;;;;;;;1.27;1.20;;;9.80;99.90;;;;;;5047020;28;20465;-77
2021/04/12 00:23:27;;;;;;;1.50;1.40;;;9.80;99.90;;;;;;5052322;28;20494;-77
2021/04/12 00:26:02;;;;;;;1.30;1.20;;;9.70;99.90;;;;;;5051613;28;21319;-75
2021/04/12 00:28:35;;;;;;;1.40;1.30;;;9.80;99.90;;;;;;5045111;28;20520;-78
2021/04/12 00:31:07;;;;;;;1.50;1.40;;;9.80;99.90;;;;;;5055179;28;20835;-74
2021/04/12 00:33:40;;;;;;;1.43;1.33;;;9.70;99.90;;;;;;5049775;28;20497;-76
2021/04/12 00:36:16;;;;;;;1.90;1.80;;;9.70;99.90;;;;;;5042996;28;21187;-77
2021/04/12 00:38:52;;;;;;;1.50;1.40;;;9.60;99.90;;;;;;5050970;28;20480;-77
2021/04/12 00:41:46;;;;;;;1.53;1.43;;;9.50;99.90;;;;;;5053651;28;20567;-78
2021/04/12 00:44:25;;;;;;;1.50;1.40;;;9.50;99.90;;;;;;5040497;28;20525;-79
2021/04/12 00:47:07;;;;;;;1.70;1.60;;;9.50;99.90;;;;;;5052268;28;20618;-76
2021/04/12 00:49:43;;;;;;;1.70;1.60;;;9.50;99.90;;;;;;5058449;28;20466;-77
2021/04/12 00:52:46;;;;;;;1.80;1.70;;;9.60;99.90;;;;;;5055054;28;20489;-78
2021/04/12 00:55:28;;;;;;;1.40;1.30;;;9.50;99.90;;;;;;5048789;28;20468;-77
2021/04/12 00:58:14;;;;;;;1.70;1.60;;;9.30;99.90;;;;;;5059044;28;20453;-79
2021/04/12 01:00:49;;;;;;;1.50;1.40;;;9.30;99.90;;;;;;5044391;28;20556;-78
2021/04/12 01:03:33;;;;;;;1.50;1.40;;;9.30;99.90;;;;;;5055252;28;20503;-78
2021/04/12 01:06:10;;;;;;;1.90;1.80;;;9.20;99.90;;;;;;5047447;28;20469;-77
2021/04/12 01:08:59;;;;;;;2.17;1.97;;;9.20;99.90;;;;;;5057745;28;20483;-76
2021/04/12 01:11:53;;;;;;;2.07;1.97;;;9.10;99.90;;;;;;5052445;28;20551;-79
2021/04/12 01:15:12;;;;;;;2.30;2.10;;;9.20;99.90;;;;;;5049909;28;20828;-78
2021/04/12 01:18:09;;;;;;;2.10;2.00;;;9.30;99.90;;;;;;5053902;28;20540;-76
2021/04/12 01:21:01;;;;;;;2.23;2.03;;;9.30;99.90;;;;;;5030828;28;20466;-77
2021/04/12 01:24:17;;;;;;;1.90;1.80;;;9.20;99.90;;;;;;5040415;28;20474;-77
2021/04/12 01:27:11;;;;;;;2.03;1.93;;;9.30;99.90;;;;;;5055858;28;20447;-78
2021/04/12 01:30:20;;;;;;;2.70;2.50;;;9.30;99.90;;;;;;5054646;28;20465;-78
2021/04/12 01:33:26;;;;;;;2.40;2.20;;;9.30;99.90;;;;;;5062704;28;20564;-77
2021/04/12 01:36:23;;;;;;;2.03;1.93;;;9.20;99.90;;;;;;5045337;28;20545;-75
2021/04/12 01:39:05;;;;;;;2.20;2.00;;;9.10;99.90;;;;;;5057746;28;20459;-75
2021/04/12 01:41:51;;;;;;;2.20;2.10;;;9.00;99.90;;;;;;5056554;28;20473;-76
2021/04/12 01:44:34;;;;;;;2.23;2.10;;;9.10;99.90;;;;;;5058395;28;20551;-77
2021/04/12 01:47:08;;;;;;;1.90;1.80;;;9.00;99.90;;;;;;5041338;28;20464;-79
2021/04/12 01:49:54;;;;;;;2.80;2.60;;;9.00;99.90;;;;;;5056518;28;20511;-78
2021/04/12 01:52:38;;;;;;;2.17;1.97;;;9.00;99.90;;;;;;5039842;28;20911;-77
2021/04/12 01:55:28;;;;;;;2.60;2.50;;;8.90;99.90;;;;;;5054335;28;20464;-79
2021/04/12 01:58:20;;;;;;;2.07;1.97;;;8.90;99.90;;;;;;5060281;28;20479;-76
2021/04/12 02:00:58;;;;;;;2.33;2.13;;;8.80;99.90;;;;;;5048018;28;20474;-75
2021/04/12 02:03:39;;;;;;;1.80;1.70;;;8.80;99.90;;;;;;5043663;28;20489;-78
2021/04/12 02:06:36;;;;;;;2.40;2.20;;;8.70;99.90;;;;;;5043233;28;20476;-77
2021/04/12 02:09:42;;;;;;;2.10;2.00;;;8.70;99.90;;;;;;5031773;28;20842;-77
2021/04/12 02:12:29;;;;;;;2.07;1.97;;;8.60;99.90;;;;;;4985873;28;21436;-76
2021/04/12 02:15:19;;;;;;;1.90;1.80;;;8.50;99.90;;;;;;5051558;28;20505;-78
2021/04/12 02:18:06;;;;;;;1.40;1.30;;;8.40;99.90;;;;;;5061573;28;20473;-75
2021/04/12 02:20:47;;;;;;;2.43;2.23;;;8.40;99.90;;;;;;5059250;28;21284;-77
2021/04/12 02:23:38;;;;;;;2.37;2.20;;;8.60;99.90;;;;;;5044267;28;20485;-77
2021/04/12 02:26:24;;;;;;;3.10;1.70;;;8.70;99.90;;;;;;5055428;28;20469;-79
2021/04/12 02:29:01;;;;;;;1.80;1.70;;;8.60;99.90;;;;;;5061399;28;20464;-75
2021/04/12 02:31:42;;;;;;;3.40;1.97;;;8.60;99.90;;;;;;5050616;28;20466;-78
2021/04/12 02:34:20;;;;;;;2.60;2.20;;;8.60;99.90;;;;;;5045608;28;20483;-79
2021/04/12 02:37:00;;;;;;;2.50;2.30;;;8.50;99.90;;;;;;5048532;28;20845;-78
2021/04/12 02:39:51;;;;;;;1.90;1.80;;;8.40;99.90;;;;;;5046879;28;20481;-76
2021/04/12 02:42:27;;;;;;;2.23;2.07;;;8.40;99.90;;;;;;5059818;28;20583;-76
2021/04/12 02:45:07;;;;;;;2.30;2.03;;;8.50;99.90;;;;;;5061669;28;20494;-76
2021/04/12 02:47:57;;;;;;;1.87;1.70;;;8.40;99.90;;;;;;5055402;28;20482;-78
2021/04/12 02:50:52;;;;;;;2.20;2.10;;;8.40;99.90;;;;;;5056197;28;20470;-78
2021/04/12 02:53:44;;;;;;;2.00;1.90;;;8.40;99.90;;;;;;5043291;28;20904;-77
2021/04/12 02:56:20;;;;;;;3.03;2.10;;;8.30;99.90;;;;;;5036828;28;20871;-78
2021/04/12 02:59:12;;;;;;;2.33;2.13;;;8.40;99.90;;;;;;5041585;28;20457;-77
2021/04/12 03:02:04;;;;;;;1.87;1.73;;;8.40;99.90;;;;;;5051627;28;20541;-78
2021/04/12 03:04:52;;;;;;;3.63;2.57;;;8.60;99.90;;;;;;5058882;28;20491;-77
2021/04/12 03:07:39;;;;;;;2.43;2.23;;;8.30;99.90;;;;;;5043335;28;20659;-78
2021/04/12 03:10:32;;;;;;;1.80;1.70;;;8.40;99.90;;;;;;5042754;28;20553;-77
2021/04/12 03:13:34;;;;;;;2.50;2.27;;;8.30;99.90;;;;;;5041540;28;20497;-77
2021/04/12 03:16:39;;;;;;;2.77;2.10;;;8.40;99.90;;;;;;5056696;28;20464;-78
2021/04/12 03:19:53;;;;;;;2.10;2.00;;;8.40;99.90;;;;;;5053571;28;20470;-76
2021/04/12 03:23:10;;;;;;;3.40;2.80;;;8.30;99.90;;;;;;4981468;28;20502;-77
2021/04/12 03:25:56;;;;;;;2.10;2.00;;;8.40;99.90;;;;;;4983407;28;20465;-76
2021/04/12 03:28:34;;;;;;;2.20;2.00;;;8.50;99.90;;;;;;4986936;28;20581;-76
2021/04/12 03:31:16;;;;;;;2.10;2.00;;;8.50;99.90;;;;;;5019963;28;21308;-75
2021/04/12 03:33:59;;;;;;;2.47;2.30;;;8.40;99.90;;;;;;5045842;28;20990;-76
2021/04/12 03:36:34;;;;;;;3.10;2.90;;;8.30;99.90;;;;;;5042415;28;20473;-77
2021/04/12 03:39:06;;;;;;;2.80;1.80;;;8.40;99.90;;;;;;5058267;28;20511;-76
2021/04/12 03:41:55;;;;;;;2.60;2.13;;;8.20;99.90;;;;;;5059187;28;20462;-78
2021/04/12 03:44:51;;;;;;;2.03;1.80;;;8.20;99.90;;;;;;5043847;28;20518;-78
2021/04/12 03:47:51;;;;;;;3.50;2.13;;;8.10;99.90;;;;;;5042080;28;20467;-76
2021/04/12 03:50:53;;;;;;;2.90;2.63;;;8.20;99.90;;;;;;5042247;28;20469;-76
2021/04/12 03:53:45;;;;;;;2.20;1.93;;;8.30;99.90;;;;;;5042643;28;20478;-76
2021/04/12 03:56:24;;;;;;;2.67;2.40;;;8.20;99.90;;;;;;5048384;28;20484;-77
2021/04/12 03:59:15;;;;;;;3.90;2.67;;;8.30;99.90;;;;;;5057078;28;20561;-75
2021/04/12 04:02:12;;;;;;;3.60;2.60;;;8.30;99.90;;;;;;5041156;28;20465;-76
2021/04/12 04:05:13;;;;;;;2.80;2.33;;;8.30;99.90;;;;;;5046348;28;20483;-77
2021/04/12 04:08:19;;;;;;;3.33;3.03;;;8.20;99.90;;;;;;5057972;28;20466;-77
2021/04/12 04:11:25;;;;;;;3.13;2.93;;;8.10;99.90;;;;;;5058819;28;20471;-75
2021/04/12 04:14:27;;;;;;;3.00;2.80;;;8.10;99.90;;;;;;5039664;28;20511;-73
2021/04/12 04:17:24;;;;;;;4.13;3.03;;;8.20;99.90;;;;;;5046347;28;20489;-76
2021/04/12 04:20:07;;;;;;;2.90;2.60;;;8.20;99.90;;;;;;5040843;28;20460;-77
2021/04/12 04:22:58;;;;;;;3.40;3.10;;;8.10;99.90;;;;;;5041287;28;21401;-75
2021/04/12 04:25:43;;;;;;;2.67;2.47;;;8.00;99.90;;;;;;5041595;28;21313;-77
2021/04/12 04:28:35;;;;;;;2.40;2.23;;;8.00;99.90;;;;;;5055947;28;20525;-77
2021/04/12 04:31:32;;;;;;;2.00;1.90;;;8.10;99.90;;;;;;5041314;28;20554;-77
2021/04/12 04:34:25;;;;;;;1.67;1.57;;;8.10;99.90;;;;;;5047060;28;21026;-76
2021/04/12 04:37:20;;;;;;;2.20;2.00;;;8.00;99.90;;;;;;5046278;28;20472;-76
2021/04/12 04:40:10;;;;;;;2.10;1.73;;;8.10;99.90;;;;;;5038827;28;20483;-78
2021/04/12 04:43:03;;;;;;;2.07;1.73;;;8.00;99.90;;;;;;5030338;28;20506;-78
2021/04/12 04:45:56;;;;;;;1.90;1.60;;;8.00;99.90;;;;;;5041312;28;20502;-78
2021/04/12 04:48:57;;;;;;;1.60;1.50;;;8.10;99.90;;;;;;5014863;28;20462;-76
2021/04/12 04:52:05;;;;;;;1.30;1.20;;;8.10;99.90;;;;;;5041814;28;20449;-77
2021/04/12 04:55:08;;;;;;;2.13;2.00;;;8.10;99.90;;;;;;5048991;28;20461;-76
2021/04/12 04:57:47;;;;;;;1.67;1.57;;;8.00;99.90;;;;;;5052573;28;20465;-75
2021/04/12 05:00:37;;;;;;;2.27;1.57;;;7.80;99.90;;;;;;5058742;28;20461;-75
2021/04/12 05:03:22;;;;;;;1.37;1.27;;;7.70;99.90;;;;;;5041889;28;20482;-79
2021/04/12 05:06:37;;;;;;;2.00;1.37;;;7.90;99.90;;;;;;5050760;28;20472;-79
2021/04/12 05:09:33;;;;;;;1.67;1.40;;;7.80;99.90;;;;;;5041811;28;20457;-77
2021/04/12 05:12:33;;;;;;;2.70;1.73;;;7.80;99.90;;;;;;5057934;28;20464;-79
2021/04/12 05:15:40;;;;;;;2.50;1.93;;;7.80;99.90;;;;;;5056826;28;21291;-77
2021/04/12 05:18:44;;;;;;;2.00;1.90;;;7.80;99.90;;;;;;5059048;28;21039;-78
2021/04/12 05:21:52;;;;;;;2.00;1.90;;;7.90;99.90;;;;;;5047465;28;20976;-77
2021/04/12 05:24:38;;;;;;;3.17;2.07;;;8.00;99.90;;;;;;5050163;28;20490;-78
2021/04/12 05:27:46;;;;;;;2.77;2.57;;;7.90;99.90;;;;;;5046613;28;20462;-77
2021/04/12 05:30:49;;;;;;;4.23;2.47;;;7.90;99.90;;;;;;5050997;28;20979;-76
2021/04/12 05:33:37;;;;;;;2.53;2.33;;;7.80;99.90;;;;;;5011741;28;20496;-79
2021/04/12 05:36:25;;;;;;;2.38;2.20;;;7.50;99.90;;;;;;5036066;28;20538;-78
2021/04/12 05:39:27;;;;;;;2.20;2.00;;;7.60;99.90;;;;;;5040147;28;20207;-76
2021/04/12 05:42:28;;;;;;;2.40;2.20;;;7.60;99.90;;;;;;5037067;28;21412;-76
2021/04/12 05:45:10;;;;;;;2.13;2.03;;;7.50;99.90;;;;;;5038260;28;20241;-77
2021/04/12 05:48:07;;;;;;;2.33;2.13;;;7.70;99.90;;;;;;5038085;28;20458;-78
2021/04/12 05:50:53;;;;;;;2.50;2.23;;;7.50;99.90;;;;;;5033724;28;20454;-78
2021/04/12 05:53:30;;;;;;;2.70;2.50;;;7.60;99.90;;;;;;5031636;28;20555;-79
2021/04/12 05:56:16;;;;;;;2.40;2.20;;;7.70;99.90;;;;;;5041468;28;20471;-78
2021/04/12 05:59:27;;;;;;;2.43;2.33;;;7.70;99.90;;;;;;5039906;28;20463;-77
2021/04/12 06:02:24;;;;;;;2.90;2.70;;;7.70;99.90;;;;;;5012615;28;20472;-78
2021/04/12 06:05:07;;;;;;;2.60;2.40;;;7.70;99.90;;;;;;5031262;28;20570;-76
2021/04/12 06:08:02;;;;;;;2.70;2.50;;;7.70;99.90;;;;;;5045671;28;20465;-76
2021/04/12 06:10:58;;;;;;;3.40;3.00;;;7.70;99.90;;;;;;5040648;28;20473;-76
2021/04/12 06:13:59;;;;;;;3.23;2.93;;;7.70;99.90;;;;;;5046353;28;20481;-76
2021/04/12 06:17:00;;;;;;;2.70;2.50;;;7.70;99.90;;;;;;5043634;28;20451;-76
2021/04/12 06:20:10;;;;;;;3.30;3.10;;;7.90;99.90;;;;;;5047625;28;20471;-76
2021/04/12 06:23:03;;;;;;;3.60;3.17;;;7.90;99.90;;;;;;5043288;28;20583;-78
2021/04/12 06:25:45;;;;;;;3.73;3.27;;;7.80;99.90;;;;;;5037961;28;21042;-75
2021/04/12 06:28:43;;;;;;;4.63;3.63;;;7.90;99.90;;;;;;5030111;28;20464;-76
2021/04/12 06:31:35;;;;;;;3.40;3.10;;;8.00;99.90;;;;;;5001535;28;20473;-78
2021/04/12 06:34:32;;;;;;;4.60;4.20;;;8.00;99.90;;;;;;5034303;28;20477;-76
2021/04/12 06:37:09;;;;;;;4.00;3.60;;;8.10;99.90;;;;;;5032108;28;20473;-76
2021/04/12 06:39:57;;;;;;;3.70;3.30;;;8.10;99.90;;;;;;5030922;28;20479;-76
2021/04/12 06:43:00;;;;;;;4.20;3.80;;;7.90;99.90;;;;;;5039373;28;20951;-75
2021/04/12 06:46:00;;;;;;;4.27;3.87;;;8.00;99.90;;;;;;5006341;28;20492;-78
2021/04/12 06:48:58;;;;;;;5.63;3.67;;;8.00;99.90;;;;;;5029234;28;20633;-77
2021/04/12 06:52:20;;;;;;;4.40;3.90;;;8.00;99.90;;;;;;5039988;28;20469;-77
2021/04/12 06:55:16;;;;;;;4.37;3.80;;;8.00;99.90;;;;;;5034212;28;20663;-79
2021/04/12 06:58:41;;;;;;;4.33;3.93;;;8.00;99.90;;;;;;5033246;28;22193;-78
2021/04/12 07:01:39;;;;;;;4.50;4.10;;;7.90;99.90;;;;;;5008071;28;20499;-80
2021/04/12 07:04:45;;;;;;;4.70;4.20;;;8.00;99.90;;;;;;5052495;28;20578;-78
2021/04/12 07:07:49;;;;;;;5.47;4.57;;;7.90;99.90;;;;;;4988752;28;20462;-78
2021/04/12 07:10:43;;;;;;;5.00;4.50;;;7.90;99.90;;;;;;5050245;28;20458;-80
2021/04/12 07:13:33;;;;;;;5.37;4.83;;;7.90;99.90;;;;;;5050094;28;20736;-79
2021/04/12 07:16:28;;;;;;;6.70;4.70;;;7.80;99.90;;;;;;5035177;28;21165;-80
2021/04/12 07:19:40;;;;;;;6.63;6.00;;;8.00;99.90;;;;;;5045353;28;20486;-76
2021/04/12 07:22:39;;;;;;;5.00;4.50;;;7.70;99.90;;;;;;5053125;28;20465;-78
2021/04/12 07:25:45;;;;;;;5.20;4.70;;;7.80;99.90;;;;;;5060044;28;20554;-78
2021/04/12 07:28:45;;;;;;;4.50;4.10;;;7.80;99.90;;;;;;5044822;28;20462;-77
2021/04/12 07:31:52;;;;;;;5.10;4.60;;;8.00;99.90;;;;;;5050256;28;20844;-78
2021/04/12 07:34:57;;;;;;;5.60;4.37;;;8.00;99.90;;;;;;5040281;28;20576;-77
2021/04/12 07:37:47;;;;;;;5.27;4.77;;;7.80;99.90;;;;;;5045075;28;20996;-79
2021/04/12 07:40:52;;;;;;;7.33;6.30;;;7.90;99.90;;;;;;5048522;28;20472;-78
2021/04/12 07:44:11;;;;;;;7.33;6.17;;;7.90;99.90;;;;;;5043244;28;20480;-76
2021/04/12 07:47:18;;;;;;;7.43;5.87;;;7.90;99.90;;;;;;5054089;28;21036;-76
2021/04/12 07:50:27;;;;;;;8.10;6.27;;;7.90;99.90;;;;;;5041424;28;20465;-75
2021/04/12 07:53:42;;;;;;;10.37;7.60;;;7.90;99.90;;;;;;5047849;28;20475;-76
2021/04/12 07:56:46;;;;;;;9.40;7.10;;;7.90;99.90;;;;;;5049972;28;20491;-76
2021/04/12 07:59:45;;;;;;;8.13;6.23;;;7.80;99.90;;;;;;5057499;28;21265;-76
2021/04/12 08:02:47;;;;;;;6.83;6.03;;;7.60;99.90;;;;;;5022629;28;20459;-77
2021/04/12 08:06:05;;;;;;;9.77;6.77;;;7.70;99.90;;;;;;5048012;28;20491;-77
2021/04/12 08:08:52;;;;;;;8.37;6.50;;;7.70;99.90;;;;;;5000163;28;20497;-77
2021/04/12 08:12:13;;;;;;;7.37;5.63;;;7.80;99.90;;;;;;4989957;28;20621;-77
2021/04/12 08:15:15;;;;;;;8.50;6.07;;;7.90;99.90;;;;;;5050107;28;20445;-77
2021/04/12 08:18:14;;;;;;;8.43;6.20;;;7.70;99.90;;;;;;5046924;28;20514;-77
2021/04/12 08:21:26;;;;;;;7.87;6.20;;;7.90;99.90;;;;;;5051843;28;20833;-77
2021/04/12 08:24:26;;;;;;;6.03;5.43;;;7.90;99.90;;;;;;5003474;28;20480;-77
2021/04/12 08:27:36;;;;;;;6.13;5.13;;;7.90;99.90;;;;;;5049977;28;20462;-78
2021/04/12 08:30:43;;;;;;;8.17;5.77;;;8.00;99.90;;;;;;5046842;28;20457;-78
2021/04/12 08:33:58;;;;;;;6.43;5.73;;;8.20;99.90;;;;;;5040986;28;20485;-78
2021/04/12 08:37:02;;;;;;;7.10;6.40;;;8.20;99.90;;;;;;4955714;28;20549;-80
2021/04/12 08:40:05;;;;;;;10.03;6.60;;;8.30;99.90;;;;;;5043800;28;20916;-79
2021/04/12 08:42:51;;;;;;;8.70;5.80;;;8.20;99.90;;;;;;5044125;28;21020;-79
2021/04/12 08:45:57;;;;;;;6.83;6.10;;;8.20;99.90;;;;;;5069862;28;20956;-78
2021/04/12 08:48:49;;;;;;;5.40;4.90;;;8.10;99.90;;;;;;5052567;28;20465;-77
2021/04/12 08:51:58;;;;;;;8.00;6.10;;;8.30;99.90;;;;;;5051188;28;21229;-78
2021/04/12 08:54:51;;;;;;;7.00;5.20;;;8.30;99.90;;;;;;5019412;28;20675;-77
2021/04/12 08:57:52;;;;;;;5.77;5.17;;;7.90;99.90;;;;;;5058364;28;20537;-78
2021/04/12 09:00:57;;;;;;;6.97;5.60;;;8.20;99.90;;;;;;5041365;28;20469;-80
2021/04/12 09:04:10;;;;;;;6.73;6.00;;;8.20;99.90;;;;;;5045576;28;20489;-79
2021/04/12 09:07:11;;;;;;;7.27;5.57;;;8.30;99.90;;;;;;5044434;28;20472;-79
2021/04/12 09:10:15;;;;;;;5.30;4.80;;;8.30;99.90;;;;;;5045711;28;20553;-80
2021/04/12 09:13:24;;;;;;;4.50;3.97;;;8.30;99.90;;;;;;5053850;28;20843;-78
2021/04/12 09:16:16;;;;;;;5.50;5.00;;;8.40;99.90;;;;;;5053917;28;20463;-78
2021/04/12 09:19:17;;;;;;;5.33;4.50;;;8.40;99.90;;;;;;5046981;28;20503;-79
2021/04/12 09:22:36;;;;;;;7.10;4.87;;;8.40;99.90;;;;;;5050658;28;20460;-79
2021/04/12 09:25:43;;;;;;;4.07;3.50;;;8.40;99.90;;;;;;5029104;28;20492;-80
2021/04/12 09:28:28;;;;;;;4.87;4.47;;;8.40;99.90;;;;;;5049100;28;20504;-79
2021/04/12 09:31:17;;;;;;;5.60;4.63;;;8.50;99.90;;;;;;5059508;28;20558;-78
2021/04/12 09:34:32;;;;;;;4.20;3.80;;;8.60;99.90;;;;;;5046189;28;20563;-78
2021/04/12 09:37:32;;;;;;;4.60;3.90;;;8.70;99.90;;;;;;5038933;28;20478;-78
2021/04/12 09:40:52;;;;;;;4.30;3.30;;;8.60;99.90;;;;;;5056802;28;20494;-78
2021/04/12 09:44:05;;;;;;;4.20;3.90;;;8.70;99.90;;;;;;5052280;28;20486;-78
2021/04/12 09:47:09;;;;;;;4.60;3.80;;;8.70;99.90;;;;;;5019554;28;20472;-77
2021/04/12 09:50:30;;;;;;;6.50;4.30;;;8.80;99.90;;;;;;5051979;28;20219;-78
2021/04/12 09:53:17;;;;;;;3.43;3.13;;;8.90;99.90;;;;;;5002404;28;21098;-78
2021/04/12 09:56:12;;;;;;;4.30;3.03;;;8.90;99.90;;;;;;5002996;28;20542;-78
2021/04/12 09:59:24;;;;;;;6.30;3.37;;;8.90;99.90;;;;;;5044930;28;20477;-77
2021/04/12 10:02:17;;;;;;;4.33;2.67;;;8.90;99.90;;;;;;5042554;28;20473;-78
2021/04/12 10:04:54;;;;;;;2.90;2.57;;;8.90;99.90;;;;;;5047492;28;20506;-79
2021/04/12 10:07:48;;;;;;;3.00;2.67;;;8.90;99.90;;;;;;5043688;28;20495;-80
2021/04/12 10:10:19;;;;;;;4.10;2.70;;;8.90;99.90;;;;;;5053275;28;20465;-79
2021/04/12 10:13:13;;;;;;;3.17;2.00;;;8.90;99.90;;;;;;5042457;28;20476;-78
2021/04/12 10:15:59;;;;;;;4.73;2.50;;;8.90;99.90;;;;;;5040544;28;20472;-79
2021/04/12 10:18:34;;;;;;;1.90;1.80;;;9.00;99.90;;;;;;5049440;28;20505;-78
2021/04/12 10:21:14;;;;;;;2.37;2.17;;;9.00;99.90;;;;;;5049668;28;20485;-79
2021/04/12 10:23:45;;;;;;;2.30;2.10;;;9.10;96.30;;;;;;5049207;28;20483;-78
2021/04/12 10:26:16;;;;;;;3.13;2.37;;;9.10;96.50;;;;;;5053123;28;20645;-77
2021/04/12 10:28:48;;;;;;;3.93;2.77;;;9.10;96.20;;;;;;5049886;28;21215;-77
2021/04/12 10:31:29;;;;;;;2.43;2.23;;;9.10;85.00;;;;;;5057334;28;20471;-77
2021/04/12 10:34:09;;;;;;;4.77;3.00;;;9.20;94.00;;;;;;5050412;28;21010;-78
2021/04/12 10:36:48;;;;;;;2.27;2.07;;;9.30;99.90;;;;;;5049261;28;20483;-77
2021/04/12 10:39:30;;;;;;;3.23;2.33;;;9.40;96.30;;;;;;5046964;28;20461;-77
2021/04/12 10:42:04;;;;;;;3.83;2.20;;;9.50;91.30;;;;;;5047588;28;20589;-78
2021/04/12 10:44:37;;;;;;;3.40;2.53;;;9.50;89.70;;;;;;5044869;28;20489;-76
2021/04/12 10:47:14;;;;;;;3.00;2.60;;;9.40;84.00;;;;;;5048081;28;20463;-79
2021/04/12 10:49:52;;;;;;;3.30;2.03;;;9.40;88.70;;;;;;5053490;28;20464;-78
2021/04/12 10:52:25;;;;;;;2.97;2.60;;;9.30;83.70;;;;;;5049226;28;20524;-79
2021/04/12 10:55:14;;;;;;;3.37;3.07;;;9.20;82.20;;;;;;5044912;28;20500;-80
2021/04/12 10:57:51;;;;;;;2.50;2.30;;;9.10;76.40;;;;;;5053184;28;20488;-80
2021/04/12 11:00:40;;;;;;;3.57;2.27;;;9.20;80.70;;;;;;5045313;28;20481;-81
2021/04/12 11:03:30;;;;;;;2.83;2.33;;;9.20;66.80;;;;;;5048551;28;20499;-80
2021/04/12 11:06:19;;;;;;;5.53;2.60;;;9.20;69.00;;;;;;5046484;28;20493;-80
2021/04/12 11:08:55;;;;;;;4.00;2.63;;;9.30;74.70;;;;;;5044378;28;21076;-80
2021/04/12 11:11:25;;;;;;;1.93;1.70;;;9.30;71.00;;;;;;5049105;28;20599;-79
2021/04/12 11:13:56;;;;;;;2.53;2.33;;;9.40;67.80;;;;;;5049846;28;20556;-78
2021/04/12 11:16:33;;;;;;;2.53;2.30;;;9.40;63.10;;;;;;5047206;28;20471;-79
2021/04/12 11:19:18;;;;;;;2.20;1.80;;;9.50;61.30;;;;;;5049305;28;20458;-81
2021/04/12 11:21:56;;;;;;;2.13;1.93;;;9.50;56.50;;;;;;5048945;28;20465;-82
2021/04/12 11:24:31;;;;;;;2.97;1.90;;;9.60;53.20;;;;;;5053685;28;21386;-82
2021/04/12 11:27:39;;;;;;;6.13;2.60;;;9.60;53.60;;;;;;5048524;28;20466;-78
2021/04/12 11:30:18;;;;;;;2.57;2.37;;;9.50;54.30;;;;;;5014462;28;20478;-80
2021/04/12 11:32:55;;;;;;;2.17;2.07;;;9.50;53.50;;;;;;5041563;28;21082;-78
2021/04/12 11:35:32;;;;;;;2.73;2.30;;;9.40;55.00;;;;;;5044492;28;20474;-78
2021/04/12 11:38:08;;;;;;;2.20;2.00;;;9.40;57.70;;;;;;5052302;28;21053;-78
2021/04/12 11:40:44;;;;;;;2.57;2.37;;;9.50;56.80;;;;;;5047218;28;20477;-78
2021/04/12 11:43:23;;;;;;;4.60;2.53;;;9.50;57.10;;;;;;5044487;28;21096;-77
2021/04/12 11:45:58;;;;;;;2.90;2.00;;;9.70;52.20;;;;;;5045103;28;20485;-79
2021/04/12 11:48:32;;;;;;;4.30;2.50;;;9.60;48.60;;;;;;5057542;28;20518;-79
2021/04/12 11:51:03;;;;;;;1.93;1.83;;;9.60;49.00;;;;;;5053198;28;20541;-78
2021/04/12 11:53:44;;;;;;;2.90;1.70;;;9.70;45.50;;;;;;5044447;28;20485;-80
2021/04/12 11:56:39;;;;;;;3.47;2.10;;;9.80;45.90;;;;;;5044310;28;20461;-80
2021/04/12 11:59:13;;;;;;;3.20;2.37;;;9.70;45.10;;;;;;5051680;28;20467;-79
2021/04/12 12:01:48;;;;;;;4.00;3.00;;;9.60;44.20;;;;;;5045466;28;20483;-80
2021/04/12 12:04:20;;;;;;;3.17;2.33;;;9.70;45.80;;;;;;5049190;28;21072;-79
2021/04/12 12:06:56;;;;;;;2.50;2.30;;;9.70;42.40;;;;;;5049202;28;20469;-79
2021/04/12 12:09:47;;;;;;;2.10;1.83;;;9.70;41.90;;;;;;5045673;28;21061;-81
2021/04/12 12:12:29;;;;;;;1.90;1.80;;;9.60;41.00;;;;;;5054219;28;20537;-81
2021/04/12 12:15:07;;;;;;;2.77;2.20;;;9.70;39.20;;;;;;5048147;28;20460;-81
2021/04/12 12:17:41;;;;;;;15.63;2.20;;;9.80;46.80;;;;;;5055658;28;20472;-79
2021/04/12 12:20:16;;;;;;;1.70;1.60;;;9.70;40.30;;;;;;5048482;28;20461;-80
2021/04/12 12:22:54;;;;;;;2.33;2.00;;;9.70;33.80;;;;;;5058394;28;20539;-79
2021/04/12 12:25:39;;;;;;;1.80;1.70;;;9.70;33.40;;;;;;5047007;28;20999;-78
2021/04/12 12:28:20;;;;;;;2.07;1.50;;;9.90;29.60;;;;;;5057952;28;20831;-78
2021/04/12 12:30:54;;;;;;;1.77;1.60;;;9.90;25.10;;;;;;5044126;28;20473;-79
2021/04/12 12:33:31;;;;;;;2.30;1.70;;;9.80;23.20;;;;;;5046775;28;20563;-80
2021/04/12 12:36:11;;;;;;;1.73;1.33;;;9.90;22.40;;;;;;5043849;28;20470;-79
2021/04/12 12:38:59;;;;;;;6.50;2.00;;;9.90;23.80;;;;;;5058413;28;20633;-79
2021/04/12 12:41:29;;;;;;;2.13;1.70;;;9.90;23.50;;;;;;5052880;28;20482;-79
2021/04/12 12:44:04;;;;;;;3.70;1.73;;;9.90;24.20;;;;;;5043767;28;20495;-79
2021/04/12 12:46:35;;;;;;;2.80;1.53;;;9.90;25.60;;;;;;5047579;28;20474;-79
2021/04/12 12:49:16;;;;;;;1.90;1.70;;;9.90;26.80;;;;;;5053726;28;20452;-79
2021/04/12 12:51:51;;;;;;;1.70;1.43;;;9.90;27.20;;;;;;5041631;28;20465;-79
2021/04/12 12:54:27;;;;;;;1.43;1.33;;;10.00;22.80;;;;;;5044528;28;20496;-79
2021/04/12 12:57:03;;;;;;;2.63;1.50;;;10.10;35.80;;;;;;5044103;28;20467;-78
2021/04/12 12:59:37;;;;;;;2.70;1.70;;;10.20;33.20;;;;;;5043605;28;20517;-78
2021/04/12 13:02:30;;;;;;;5.13;3.53;;;10.30;32.30;;;;;;5046985;28;20473;-78
2021/04/12 13:05:04;;;;;;;1.60;1.50;;;10.40;28.00;;;;;;5053065;28;20481;-79
2021/04/12 13:07:34;;;;;;;3.53;1.27;;;10.40;22.80;;;;;;5057185;28;20471;-81
2021/04/12 13:10:07;;;;;;;1.47;1.20;;;10.40;20.60;;;;;;5051754;28;21056;-81
2021/04/12 13:12:37;;;;;;;4.87;1.67;;;10.20;17.00;;;;;;5045157;28;20738;-81
2021/04/12 13:15:14;;;;;;;2.57;1.43;;;10.20;16.60;;;;;;5043198;28;20486;-80
2021/04/12 13:17:43;;;;;;;3.37;1.20;;;10.30;17.10;;;;;;5045646;28;20472;-80
2021/04/12 13:20:15;;;;;;;2.70;1.10;;;10.20;12.70;;;;;;5045463;28;20470;-81
2021/04/12 13:22:46;;;;;;;2.30;1.40;;;10.20;14.30;;;;;;5046150;28;20530;-81
2021/04/12 13:25:19;;;;;;;1.80;1.33;;;10.30;11.20;;;;;;5046842;28;20588;-80
2021/04/12 13:27:50;;;;;;;1.63;1.10;;;10.30;11.20;;;;;;5049479;28;20474;-82
2021/04/12 13:30:22;;;;;;;3.63;1.70;;;10.40;12.60;;;;;;5045307;28;20893;-80
2021/04/12 13:32:58;;;;;;;1.97;1.50;;;10.20;14.20;;;;;;5040998;28;20494;-80
2021/04/12 13:35:29;;;;;;;3.00;1.20;;;10.50;13.80;;;;;;5047096;28;20459;-80
2021/04/12 13:38:08;;;;;;;4.13;1.20;;;10.60;15.40;;;;;;5050951;28;20472;-80
2021/04/12 13:40:42;;;;;;;2.10;1.50;;;10.70;14.50;;;;;;5048186;28;20960;-80
2021/04/12 13:43:11;;;;;;;1.30;1.17;;;10.90;14.90;;;;;;5046858;28;20513;-81
2021/04/12 13:45:41;;;;;;;1.10;1.10;;;10.80;12.00;;;;;;5045872;28;20491;-80
2021/04/12 13:48:13;;;;;;;2.10;1.10;;;10.80;14.30;;;;;;5046407;28;20477;-80
2021/04/12 13:50:53;;;;;;;2.60;1.03;;;10.90;13.60;;;;;;5049927;28;21199;-79
2021/04/12 13:53:29;;;;;;;3.40;1.63;;;10.80;10.60;;;;;;5048019;28;20569;-80
2021/04/12 13:56:09;;;;;;;2.23;1.30;;;10.80;10.70;;;;;;5051210;28;20460;-79
2021/04/12 13:58:39;;;;;;;5.77;2.30;;;10.80;12.50;;;;;;5047393;28;20464;-79
2021/04/12 14:01:11;;;;;;;5.00;1.70;;;10.80;11.40;;;;;;5050397;28;20832;-79
2021/04/12 14:03:55;;;;;;;2.63;1.50;;;10.80;10.90;;;;;;5065598;28;20475;-79
2021/04/12 14:06:25;;;;;;;4.30;1.70;;;10.70;13.30;;;;;;5047149;28;20484;-79
2021/04/12 14:08:55;;;;;;;2.27;1.50;;;10.70;13.20;;;;;;5046796;28;20462;-80
2021/04/12 14:11:28;;;;;;;1.37;1.27;;;10.70;13.30;;;;;;5045144;28;20873;-81
2021/04/12 14:14:05;;;;;;;1.40;1.30;;;10.70;13.30;;;;;;5050965;28;20488;-80
2021/04/12 14:16:37;;;;;;;1.97;1.60;;;10.70;14.70;;;;;;5047869;28;20471;-81
2021/04/12 14:19:12;;;;;;;1.47;1.37;;;10.60;13.20;;;;;;5060095;28;20467;-81
2021/04/12 14:21:42;;;;;;;1.37;1.27;;;10.60;12.80;;;;;;5048510;28;20468;-79
2021/04/12 14:24:18;;;;;;;2.73;1.50;;;10.70;12.70;;;;;;5046508;28;20482;-81
2021/04/12 14:26:49;;;;;;;2.53;2.33;;;11.00;12.50;;;;;;5048866;28;20998;-79
2021/04/12 14:29:26;;;;;;;2.30;1.97;;;10.70;15.80;;;;;;5041946;28;20629;-79
2021/04/12 14:31:55;;;;;;;2.50;1.40;;;10.70;12.00;;;;;;5041919;28;20468;-79
2021/04/12 14:34:29;;;;;;;2.13;1.60;;;10.70;12.10;;;;;;5039322;28;20463;-77
2021/04/12 14:37:04;;;;;;;2.20;1.37;;;10.60;10.50;;;;;;5041245;28;20496;-80
2021/04/12 14:39:32;;;;;;;2.23;1.43;;;10.70;11.60;;;;;;5052572;28;21018;-79
2021/04/12 14:42:03;;;;;;;4.60;1.50;;;10.80;10.40;;;;;;5056420;28;20948;-79
2021/04/12 14:44:35;;;;;;;1.10;1.10;;;10.70;10.00;;;;;;5050279;28;21015;-79